GBMKR EGCM-EGCM
Flight info
| Callsign | GBMKR |
|---|---|
| Flight time | 0h 1m |
| Altitude | 3000 |
| Route | DCT EGCM |
| Aircraft | P28A/L-SDGRY/S |
Departure
| Time | 2026-05-05 18:38 |
|---|---|
| Airport | Leeds East Airport (EGCM) |
Arrival
| Time | 2026-05-05 18:39 |
|---|---|
| Airport | Leeds East Airport (EGCM) |
| Time | Latitude | Longitude | Altitude | Speed | Heading |
|---|---|---|---|---|---|
| 2026-05-05 18:34 | 53.83393 | -1.20206 | 36 ft | 1 kts | 170° |
| 2026-05-05 18:34 | 53.83390 | -1.20176 | 37 ft | 7 kts | 84° |
| 2026-05-05 18:34 | 53.83394 | -1.20088 | 37 ft | 7 kts | 84° |
| 2026-05-05 18:35 | 53.83435 | -1.20035 | 37 ft | 14 kts | 318° |
| 2026-05-05 18:35 | 53.83522 | -1.19899 | 37 ft | 27 kts | 37° |
| 2026-05-05 18:35 | 53.83697 | -1.19757 | 35 ft | 26 kts | 47° |
| 2026-05-05 18:35 | 53.83767 | -1.19483 | 37 ft | 25 kts | 71° |
| 2026-05-05 18:36 | 53.83840 | -1.19218 | 36 ft | 26 kts | 64° |
| 2026-05-05 18:36 | 53.83924 | -1.18933 | 36 ft | 28 kts | 64° |
| 2026-05-05 18:36 | 53.84024 | -1.18668 | 34 ft | 23 kts | 64° |
| 2026-05-05 18:36 | 53.83972 | -1.18456 | 38 ft | 21 kts | 146° |
| 2026-05-05 18:37 | 53.83880 | -1.18519 | 36 ft | 16 kts | 234° |
| 2026-05-05 18:37 | 53.83766 | -1.18794 | 38 ft | 49 kts | 236° |
| 2026-05-05 18:37 | 53.83467 | -1.19478 | 98 ft | 86 kts | 235° |
| 2026-05-05 18:37 | 53.83112 | -1.20327 | 335 ft | 86 kts | 246° |
| 2026-05-05 18:38 | 53.82850 | -1.21216 | 488 ft | 89 kts | 288° |
| 2026-05-05 18:38 | 53.82972 | -1.22192 | 756 ft | 85 kts | 294° |
| 2026-05-05 18:38 | 53.83265 | -1.22994 | 955 ft | 78 kts | 340° |
| 2026-05-05 18:38 | 53.83829 | -1.23121 | 1102 ft | 86 kts | 2° |
| 2026-05-05 18:39 | 53.84192 | -1.23360 | 570 ft | 104 kts | 318° |
| 2026-05-05 18:39 | 53.84343 | -1.22674 | 1009 ft | 49 kts | 65° |
| 2026-05-05 18:39 | 53.84449 | -1.22079 | 416 ft | 110 kts | 46° |
| 2026-05-05 18:39 | 53.84469 | -1.20811 | 339 ft | 104 kts | 98° |
| 2026-05-05 18:40 | 53.84072 | -1.20043 | 37 ft | 81 kts | 152° |
| 2026-05-05 18:40 | 53.83638 | -1.19718 | 34 ft | 56 kts | 151° |
| 2026-05-05 18:40 | 53.83345 | -1.19447 | 37 ft | 44 kts | 155° |
| 2026-05-05 18:40 | 53.83043 | -1.19156 | 41 ft | 77 kts | 134° |